createdAt,value
2023-03-10T00:00:39.670Z,97711.56
2023-03-10T00:01:29.504Z,97706.16
2023-03-10T00:02:11.428Z,97702.63
2023-03-10T00:02:53.117Z,97717.31
2023-03-10T00:03:34.908Z,97699.41
2023-03-10T00:04:16.701Z,97708.00
2023-03-10T00:04:58.655Z,97715.13
2023-03-10T00:05:40.638Z,97719.16
2023-03-10T00:06:25.093Z,97711.22
2023-03-10T00:07:06.772Z,97709.28
2023-03-10T00:07:50.231Z,97705.72
2023-03-10T00:08:31.985Z,97708.00
2023-03-10T00:09:13.926Z,97708.00
2023-03-10T00:09:55.788Z,97699.75
2023-03-10T00:10:38.304Z,97701.91
2023-03-10T00:11:20.553Z,97702.16
2023-03-10T00:12:02.738Z,97698.34
2023-03-10T00:12:44.784Z,97702.94
2023-03-10T00:13:27.211Z,97710.09
2023-03-10T00:14:09.066Z,97700.53
2023-03-10T00:14:50.788Z,97686.16
2023-03-10T00:15:32.496Z,97696.50
2023-03-10T00:16:26.305Z,97695.25
2023-03-10T00:17:08.044Z,97673.75
2023-03-10T00:17:50.264Z,97685.13
2023-03-10T00:18:32.049Z,97687.75
2023-03-10T00:19:13.769Z,97691.22
2023-03-10T00:19:55.603Z,97680.50
2023-03-10T00:20:37.375Z,97674.97
2023-03-10T00:21:22.680Z,97684.88
2023-03-10T00:22:04.399Z,97679.81
2023-03-10T00:22:46.139Z,97692.25
2023-03-10T00:23:27.880Z,97673.97
2023-03-10T00:24:10.886Z,97670.41
2023-03-10T00:24:52.632Z,97669.94
2023-03-10T00:25:34.370Z,97689.50
2023-03-10T00:26:17.805Z,97688.69
2023-03-10T00:26:59.704Z,97697.66
2023-03-10T00:27:43.295Z,97688.13
2023-03-10T00:28:26.613Z,97693.44
2023-03-10T00:29:10.824Z,97692.63
2023-03-10T00:29:52.566Z,97681.81
2023-03-10T00:30:37.192Z,97691.81
2023-03-10T00:31:24.275Z,97671.44
2023-03-10T00:32:06.487Z,97685.03
2023-03-10T00:32:50.973Z,97684.91
2023-03-10T00:33:34.110Z,97675.69
2023-03-10T00:34:15.844Z,97689.06
2023-03-10T00:34:57.625Z,97685.47
2023-03-10T00:35:39.320Z,97680.44
2023-03-10T00:36:23.990Z,97692.06
2023-03-10T00:37:05.849Z,97694.69
2023-03-10T00:37:47.610Z,97691.00
2023-03-10T00:38:30.440Z,97691.47
2023-03-10T00:39:12.181Z,97679.38
2023-03-10T00:39:54.118Z,97689.50
2023-03-10T00:40:36.240Z,97688.03
2023-03-10T00:41:21.442Z,97697.13
2023-03-10T00:42:03.512Z,97693.19
2023-03-10T00:42:45.244Z,97681.47
2023-03-10T00:43:28.150Z,97683.38
2023-03-10T00:44:09.975Z,97686.84
2023-03-10T00:44:53.524Z,97691.56
2023-03-10T00:45:37.462Z,97663.50
2023-03-10T00:46:20.136Z,97674.91
2023-03-10T00:47:01.908Z,97683.06
2023-03-10T00:47:43.717Z,97659.50
2023-03-10T00:48:26.073Z,97661.91
2023-03-10T00:49:08.886Z,97667.66
2023-03-10T00:49:50.815Z,97667.66
2023-03-10T00:50:32.758Z,97673.53
2023-03-10T00:51:14.489Z,97669.16
2023-03-10T00:51:56.229Z,97671.44
2023-03-10T00:52:38.071Z,97672.25
2023-03-10T00:53:20.214Z,97671.94
2023-03-10T00:54:03.129Z,97673.31
2023-03-10T00:54:44.985Z,97663.19
2023-03-10T00:55:26.774Z,97660.75
2023-03-10T00:56:13.107Z,97656.13
2023-03-10T00:56:54.814Z,97659.34
2023-03-10T00:57:36.742Z,97652.91
2023-03-10T00:58:18.461Z,97652.81
2023-03-10T00:59:01.168Z,97645.34
2023-03-10T00:59:50.300Z,97660.06
2023-03-10T01:00:32.535Z,97652.81
2023-03-10T01:01:19.013Z,97666.88
2023-03-10T01:02:00.941Z,97656.84
2023-03-10T01:02:45.077Z,97663.41
2023-03-10T01:03:27.687Z,97657.31
2023-03-10T01:04:14.119Z,97650.63
2023-03-10T01:04:55.789Z,97661.66
2023-03-10T01:05:37.617Z,97653.03
2023-03-10T01:06:20.128Z,97654.88
2023-03-10T01:07:01.804Z,97655.69
2023-03-10T01:07:43.461Z,97635.00
2023-03-10T01:08:25.261Z,97652.94
2023-03-10T01:09:07.391Z,97655.34
2023-03-10T01:09:49.104Z,97654.22
2023-03-10T01:10:32.987Z,97655.03
2023-03-10T01:11:16.565Z,97657.09
2023-03-10T01:11:58.296Z,97663.75
2023-03-10T01:12:40.153Z,97655.25
2023-03-10T01:13:22.282Z,97664.00
2023-03-10T01:14:07.123Z,97659.50
2023-03-10T01:14:48.982Z,97645.34
2023-03-10T01:15:31.130Z,97628.22
2023-03-10T01:16:13.208Z,97634.19
2023-03-10T01:16:54.984Z,97628.91
2023-03-10T01:17:37.038Z,97633.28
2023-03-10T01:18:20.311Z,97641.06
2023-03-10T01:19:02.111Z,97632.25
2023-03-10T01:19:43.953Z,97632.56
2023-03-10T01:20:25.642Z,97620.50
2023-03-10T01:21:10.732Z,97624.31
2023-03-10T01:21:52.449Z,97624.19
2023-03-10T01:22:34.288Z,97622.78
2023-03-10T01:23:22.118Z,97623.38
2023-03-10T01:24:05.631Z,97618.31
2023-03-10T01:24:47.321Z,97610.16
2023-03-10T01:25:29.396Z,97621.19
2023-03-10T01:26:11.100Z,97620.38
2023-03-10T01:26:52.990Z,97607.72
2023-03-10T01:27:34.791Z,97601.06
2023-03-10T01:28:17.407Z,97592.31
2023-03-10T01:28:59.621Z,97595.75
2023-03-10T01:29:41.514Z,97594.94
2023-03-10T01:30:23.221Z,97588.97
2023-03-10T01:31:07.980Z,97599.44
2023-03-10T01:31:50.379Z,97580.34
2023-03-10T01:32:32.177Z,97582.03
2023-03-10T01:33:15.256Z,97586.53
2023-03-10T01:33:57.031Z,97584.03
2023-03-10T01:34:38.738Z,97565.50
2023-03-10T01:35:20.514Z,97582.84
2023-03-10T01:36:07.002Z,97565.03
2023-03-10T01:36:48.799Z,97573.75
2023-03-10T01:37:30.728Z,97576.19
2023-03-10T01:38:13.038Z,97579.31
2023-03-10T01:38:56.910Z,97581.63
2023-03-10T01:39:38.618Z,97573.31
2023-03-10T01:40:20.394Z,97573.56
2023-03-10T01:41:02.951Z,97576.69
2023-03-10T01:41:45.030Z,97573.13
2023-03-10T01:42:27.166Z,97563.50
2023-03-10T01:43:22.016Z,97567.84
2023-03-10T01:44:05.005Z,97560.94
2023-03-10T01:45:07.855Z,97565.41
2023-03-10T01:45:52.498Z,97566.69
2023-03-10T01:46:40.796Z,97565.06
2023-03-10T01:47:27.484Z,97566.59
2023-03-10T01:48:09.427Z,97563.03
2023-03-10T01:48:51.823Z,97565.56
2023-03-10T01:49:43.401Z,97554.06
2023-03-10T01:50:25.677Z,97546.25
2023-03-10T01:51:07.563Z,97551.06
2023-03-10T01:51:55.405Z,97543.63
2023-03-10T01:52:37.568Z,97563.38
2023-03-10T01:53:21.161Z,97558.31
2023-03-10T01:54:07.212Z,97562.78
2023-03-10T01:57:36.430Z,97557.50
2023-03-10T01:58:22.171Z,97556.94
2023-03-10T01:59:04.256Z,97554.50
2023-03-10T01:59:46.974Z,97572.47
2023-03-10T02:00:30.504Z,97546.47
2023-03-10T02:01:14.340Z,97550.94
2023-03-10T02:01:57.583Z,97564.63
2023-03-10T02:02:49.273Z,97543.25
2023-03-10T02:03:37.005Z,97557.47
2023-03-10T02:04:30.367Z,97558.19
2023-03-10T02:05:14.886Z,97532.22
2023-03-10T02:06:12.065Z,97556.59
2023-03-10T02:06:54.226Z,97559.78
2023-03-10T02:07:36.408Z,97564.16
2023-03-10T02:08:18.686Z,97562.09
2023-03-10T02:09:02.695Z,97555.63
2023-03-10T02:09:48.096Z,97564.16
2023-03-10T02:10:30.038Z,97553.00
2023-03-10T02:11:14.036Z,97558.63
2023-03-10T02:11:58.437Z,97558.28
2023-03-10T02:12:40.829Z,97550.34
2023-03-10T02:13:23.072Z,97556.78
2023-03-10T02:14:06.324Z,97541.84
2023-03-10T02:14:51.811Z,97560.81
2023-03-10T02:15:34.376Z,97548.06
2023-03-10T02:16:17.239Z,97538.97
2023-03-10T02:16:59.375Z,97550.22
2023-03-10T02:17:41.617Z,97535.16
2023-03-10T02:18:24.014Z,97550.88
2023-03-10T02:19:12.121Z,97547.44
2023-03-10T02:19:58.983Z,97547.22
2023-03-10T02:20:53.749Z,97533.63
2023-03-10T02:21:57.954Z,97536.28
2023-03-10T02:22:40.276Z,97541.13
2023-03-10T02:24:01.080Z,97531.38
2023-03-10T02:24:58.169Z,97532.75
2023-03-10T02:26:01.321Z,97516.41
2023-03-10T02:27:13.548Z,97523.16
2023-03-10T02:27:55.533Z,97514.66
2023-03-10T02:28:37.356Z,97520.38
2023-03-10T02:29:38.453Z,97516.09
2023-03-10T02:30:27.477Z,97526.41
2023-03-10T02:31:11.059Z,97519.09
2023-03-10T02:31:53.972Z,97519.09
2023-03-10T02:32:40.488Z,97516.63
2023-03-10T02:33:27.331Z,97525.19
2023-03-10T02:34:12.899Z,97516.63
2023-03-10T02:34:55.592Z,97522.88
2023-03-10T02:35:37.433Z,97509.53
2023-03-10T02:36:25.130Z,97519.47
2023-03-10T02:37:06.830Z,97511.34
2023-03-10T02:37:50.781Z,97498.81
2023-03-10T02:38:32.612Z,97500.66
2023-03-10T02:39:14.560Z,97517.19
2023-03-10T02:39:57.307Z,97509.06
2023-03-10T02:40:40.845Z,97522.63
2023-03-10T02:41:32.209Z,97522.84
2023-03-10T02:42:14.394Z,97512.16
2023-03-10T02:42:56.543Z,97521.34
2023-03-10T02:43:38.577Z,97515.25
2023-03-10T02:44:35.896Z,97492.97
2023-03-10T02:45:18.519Z,97525.63
2023-03-10T02:46:05.004Z,97525.63
2023-03-10T02:46:48.030Z,97510.09
2023-03-10T02:47:29.856Z,97518.59
2023-03-10T02:48:22.712Z,97521.25
2023-03-10T02:49:07.248Z,97518.59
2023-03-10T02:49:55.437Z,97523.09
2023-03-10T02:50:39.088Z,97516.41
2023-03-10T02:51:27.603Z,97515.97
2023-03-10T02:52:34.664Z,97510.81
2023-03-10T02:53:20.894Z,97516.41
2023-03-10T02:54:04.716Z,97522.63
2023-03-10T02:54:46.727Z,97518.84
2023-03-10T02:55:28.596Z,97503.34
2023-03-10T02:56:11.053Z,97521.81
2023-03-10T02:56:54.501Z,97519.63
2023-03-10T02:57:36.302Z,97536.09
2023-03-10T02:58:19.251Z,97524.34
2023-03-10T02:59:01.494Z,97526.06
2023-03-10T02:59:45.113Z,97516.53
2023-03-10T03:00:26.926Z,97524.25
2023-03-10T03:01:08.788Z,97518.72
2023-03-10T03:01:54.417Z,97506.75
2023-03-10T03:02:36.228Z,97507.09
2023-03-10T03:03:20.601Z,97511.44
2023-03-10T03:04:02.660Z,97508.69
2023-03-10T03:04:44.680Z,97507.28
2023-03-10T03:05:29.086Z,97513.38
2023-03-10T03:06:13.457Z,97509.69
2023-03-10T03:06:55.241Z,97484.91
2023-03-10T03:07:37.301Z,97495.56
2023-03-10T03:08:19.848Z,97495.09
2023-03-10T03:09:01.573Z,97499.44
2023-03-10T03:09:45.132Z,97494.13
2023-03-10T03:10:28.451Z,97501.13
2023-03-10T03:11:10.326Z,97493.91
2023-03-10T03:11:52.207Z,97490.44
2023-03-10T03:12:33.922Z,97504.03
2023-03-10T03:13:16.192Z,97499.19
2023-03-10T03:13:58.085Z,97480.47
2023-03-10T03:14:40.586Z,97476.56
2023-03-10T03:15:24.087Z,97497.34
2023-03-10T03:16:07.292Z,97489.66
2023-03-10T03:16:49.279Z,97492.06
2023-03-10T03:17:31.128Z,97483.53
2023-03-10T03:18:12.872Z,97485.88
2023-03-10T03:18:55.203Z,97476.00
2023-03-10T03:19:38.387Z,97489.66
2023-03-10T03:20:21.588Z,97472.78
2023-03-10T03:21:07.351Z,97481.06
2023-03-10T03:21:52.151Z,97488.84
2023-03-10T03:22:34.397Z,97486.75
2023-03-10T03:23:16.251Z,97480.91
2023-03-10T03:23:58.878Z,97478.75
2023-03-10T03:24:40.694Z,97487.00
2023-03-10T03:25:24.258Z,97482.75
2023-03-10T03:26:15.193Z,97479.78
2023-03-10T03:26:56.883Z,97473.81
2023-03-10T03:27:42.600Z,97484.84
2023-03-10T03:28:24.663Z,97487.00
2023-03-10T03:29:10.491Z,97464.94
2023-03-10T03:29:53.272Z,97482.63
2023-03-10T03:30:36.257Z,97479.97
2023-03-10T03:31:21.624Z,97475.25
2023-03-10T03:32:06.276Z,97459.50
2023-03-10T03:32:50.613Z,97471.06
2023-03-10T03:33:32.341Z,97464.91
2023-03-10T03:34:15.611Z,97455.56
2023-03-10T03:34:59.861Z,97475.09
2023-03-10T03:35:43.464Z,97456.16
2023-03-10T03:36:25.302Z,97468.19
2023-03-10T03:37:07.041Z,97462.09
2023-03-10T03:37:53.773Z,97470.72
2023-03-10T03:38:35.950Z,97465.66
2023-03-10T03:39:17.923Z,97460.25
2023-03-10T03:40:12.750Z,97452.00
2023-03-10T03:40:56.584Z,97466.72
2023-03-10T03:41:38.447Z,97460.84
2023-03-10T03:42:20.253Z,97460.84
2023-03-10T03:43:07.228Z,97455.69
2023-03-10T03:43:52.387Z,97469.59
2023-03-10T03:44:34.200Z,97455.19
2023-03-10T03:45:19.086Z,97458.28
2023-03-10T03:46:01.832Z,97450.25
2023-03-10T03:46:43.726Z,97444.16
2023-03-10T03:47:25.442Z,97443.13
2023-03-10T03:48:07.249Z,97437.97
2023-03-10T03:48:50.744Z,97464.41
2023-03-10T03:49:35.329Z,97459.56
2023-03-10T03:50:19.156Z,97472.09
2023-03-10T03:51:01.378Z,97475.00
2023-03-10T03:51:49.155Z,97463.59
2023-03-10T03:52:31.865Z,97452.00
2023-03-10T03:53:14.544Z,97456.75
2023-03-10T03:53:56.492Z,97452.19
2023-03-10T03:54:38.491Z,97448.00
2023-03-10T03:55:20.570Z,97452.03
2023-03-10T03:56:05.585Z,97455.25
2023-03-10T03:56:50.153Z,97452.28
2023-03-10T03:57:32.398Z,97446.41
2023-03-10T03:58:14.828Z,97449.84
2023-03-10T03:58:58.223Z,97445.63
2023-03-10T03:59:40.758Z,97454.31
2023-03-10T04:00:24.676Z,97458.06
2023-03-10T04:01:14.604Z,97456.22
2023-03-10T04:02:01.263Z,97453.81
2023-03-10T04:02:43.649Z,97435.91
2023-03-10T04:03:25.763Z,97449.97
2023-03-10T04:04:08.005Z,97432.94
2023-03-10T04:04:50.160Z,97446.75
2023-03-10T04:05:32.490Z,97459.75
2023-03-10T04:06:14.357Z,97451.78
2023-03-10T04:06:56.247Z,97454.22
2023-03-10T04:07:40.065Z,97441.09
2023-03-10T04:08:23.411Z,97443.22
2023-03-10T04:09:06.568Z,97429.66
2023-03-10T04:09:49.279Z,97437.41
2023-03-10T04:10:31.938Z,97448.81
2023-03-10T04:11:15.256Z,97444.09
2023-03-10T04:12:00.134Z,97446.97
2023-03-10T04:12:42.246Z,97448.00
2023-03-10T04:13:24.522Z,97446.16
2023-03-10T04:14:06.820Z,97441.69
2023-03-10T04:14:48.876Z,97443.53
2023-03-10T04:15:30.899Z,97433.50
2023-03-10T04:16:14.218Z,97429.97
2023-03-10T04:16:57.236Z,97433.75
2023-03-10T04:17:40.323Z,97436.94
2023-03-10T04:18:22.133Z,97432.13
2023-03-10T04:19:07.421Z,97432.63
2023-03-10T04:20:04.497Z,97439.84
2023-03-10T04:20:49.577Z,97440.00
2023-03-10T04:21:31.682Z,97421.28
2023-03-10T04:22:13.924Z,97441.59
2023-03-10T04:22:58.688Z,97447.22
2023-03-10T04:23:45.511Z,97434.81
2023-03-10T04:24:30.744Z,97441.38
2023-03-10T04:25:13.276Z,97445.38
2023-03-10T04:25:55.992Z,97431.50
2023-03-10T04:26:38.083Z,97445.13
2023-03-10T04:27:20.283Z,97430.22
2023-03-10T04:28:02.139Z,97446.59
2023-03-10T04:28:44.402Z,97437.84
2023-03-10T04:29:28.269Z,97439.75
2023-03-10T04:30:13.947Z,97430.22
2023-03-10T04:30:59.376Z,97436.06
2023-03-10T04:31:50.492Z,97441.00
2023-03-10T04:32:41.229Z,97442.84
2023-03-10T04:33:24.630Z,97415.94
2023-03-10T04:34:07.013Z,97431.19
2023-03-10T04:34:49.216Z,97416.59
2023-03-10T04:35:31.474Z,97429.34
2023-03-10T04:36:14.178Z,97425.34
2023-03-10T04:36:56.595Z,97410.00
2023-03-10T04:37:38.965Z,97418.50
2023-03-10T04:38:23.275Z,97425.72
2023-03-10T04:39:06.388Z,97419.78
2023-03-10T04:39:49.105Z,97416.81
2023-03-10T04:40:30.801Z,97429.25
2023-03-10T04:41:12.890Z,97395.91
2023-03-10T04:41:58.285Z,97427.34
2023-03-10T04:42:40.260Z,97417.69
2023-03-10T04:43:22.220Z,97410.69
2023-03-10T04:44:05.009Z,97424.34
2023-03-10T04:44:48.205Z,97415.59
2023-03-10T04:45:30.067Z,97415.72
2023-03-10T04:46:12.048Z,97414.34
2023-03-10T04:46:54.037Z,97413.53
2023-03-10T04:47:35.971Z,97423.06
2023-03-10T04:48:17.756Z,97426.63
2023-03-10T04:48:59.616Z,97421.56
2023-03-10T04:49:41.424Z,97406.19
2023-03-10T04:50:26.609Z,97412.84
2023-03-10T04:51:13.660Z,97407.47
2023-03-10T04:52:01.976Z,97413.09
2023-03-10T04:52:45.376Z,97405.94
2023-03-10T04:53:27.838Z,97412.28
2023-03-10T04:54:10.234Z,97389.31
2023-03-10T04:54:52.143Z,97398.25
2023-03-10T04:55:34.020Z,97387.34
2023-03-10T04:56:18.285Z,97399.38
2023-03-10T04:57:01.963Z,97386.19
2023-03-10T04:57:44.289Z,97391.03
2023-03-10T04:58:27.621Z,97389.88
2023-03-10T04:59:09.864Z,97387.41
2023-03-10T04:59:52.286Z,97381.47
2023-03-10T05:00:34.193Z,97368.81
2023-03-10T05:01:16.844Z,97377.31
2023-03-10T05:02:05.641Z,97359.72
2023-03-10T05:02:48.171Z,97370.88
2023-03-10T05:03:30.078Z,97373.53
2023-03-10T05:04:12.044Z,97367.69
2023-03-10T05:04:54.481Z,97381.56
2023-03-10T05:05:37.658Z,97382.38
2023-03-10T05:06:21.782Z,97388.47
2023-03-10T05:07:13.420Z,97376.09
2023-03-10T05:08:00.878Z,97393.44
2023-03-10T05:08:42.715Z,97393.66
2023-03-10T05:09:25.667Z,97379.47
2023-03-10T05:10:08.818Z,97384.19
2023-03-10T05:10:50.896Z,97377.44
2023-03-10T05:11:33.864Z,97400.63
2023-03-10T05:12:15.685Z,97395.47
2023-03-10T05:12:57.566Z,97399.25
2023-03-10T05:13:40.368Z,97393.16
2023-03-10T05:14:22.995Z,97395.09
2023-03-10T05:15:05.351Z,97394.59
2023-03-10T05:15:47.193Z,97381.06
2023-03-10T05:16:29.002Z,97373.38
2023-03-10T05:17:11.897Z,97388.84
2023-03-10T05:17:53.881Z,97364.63
2023-03-10T05:18:35.599Z,97376.09
2023-03-10T05:19:18.177Z,97380.56
2023-03-10T05:19:59.982Z,97362.63
2023-03-10T05:20:41.833Z,97370.31
2023-03-10T05:21:23.698Z,97367.69
2023-03-10T05:22:08.103Z,97368.94
2023-03-10T05:22:50.798Z,97379.13
2023-03-10T05:23:33.465Z,97363.97
2023-03-10T05:24:15.551Z,97360.84
2023-03-10T05:24:57.345Z,97359.00
2023-03-10T05:25:40.267Z,97334.69
2023-03-10T05:26:22.333Z,97358.53
2023-03-10T05:27:04.630Z,97355.31
2023-03-10T05:27:54.825Z,97336.72
2023-03-10T05:28:36.683Z,97341.44
2023-03-10T05:29:21.155Z,97344.66
2023-03-10T05:30:12.435Z,97354.09
2023-03-10T05:30:54.425Z,97346.41
2023-03-10T05:31:36.493Z,97346.56
2023-03-10T05:32:24.204Z,97342.84
2023-03-10T05:33:06.012Z,97346.31
2023-03-10T05:33:47.786Z,97345.44
2023-03-10T05:34:31.550Z,97344.41
2023-03-10T05:35:16.184Z,97346.72
2023-03-10T05:36:04.996Z,97349.81
2023-03-10T05:36:47.888Z,97327.22
2023-03-10T05:37:31.006Z,97323.91
2023-03-10T05:38:12.847Z,97349.81
2023-03-10T05:38:54.853Z,97331.94
2023-03-10T05:39:37.703Z,97346.13
2023-03-10T05:40:24.719Z,97340.78
2023-03-10T05:41:10.780Z,97347.41
2023-03-10T05:41:53.253Z,97347.09
2023-03-10T05:42:36.265Z,97347.91
2023-03-10T05:43:18.044Z,97349.97
2023-03-10T05:44:03.098Z,97335.84
2023-03-10T05:44:45.237Z,97331.81
2023-03-10T05:45:27.022Z,97330.00
2023-03-10T05:46:08.743Z,97345.25
2023-03-10T05:46:58.068Z,97337.88
2023-03-10T05:47:40.054Z,97338.25
2023-03-10T05:48:21.864Z,97339.97
2023-03-10T05:49:03.725Z,97343.97
2023-03-10T05:49:45.939Z,97334.91
2023-03-10T05:50:27.738Z,97342.69
2023-03-10T05:51:12.908Z,97344.88
2023-03-10T05:51:54.910Z,97342.22
2023-03-10T05:52:42.447Z,97334.28
2023-03-10T05:53:25.455Z,97350.09
2023-03-10T05:54:07.418Z,97347.22
2023-03-10T05:54:49.212Z,97341.50
2023-03-10T05:55:30.934Z,97342.03
2023-03-10T05:56:15.810Z,97339.53
2023-03-10T05:56:58.759Z,97321.25
2023-03-10T05:57:42.944Z,97331.75
2023-03-10T05:58:25.818Z,97344.13
2023-03-10T05:59:08.001Z,97347.34
2023-03-10T05:59:51.164Z,97338.59
2023-03-10T06:00:32.881Z,97340.78
2023-03-10T06:01:17.341Z,97349.00
2023-03-10T06:01:59.201Z,97338.13
2023-03-10T06:02:41.580Z,97344.53
2023-03-10T06:03:24.766Z,97341.06
2023-03-10T06:04:07.020Z,97333.13
2023-03-10T06:04:49.012Z,97342.78
2023-03-10T06:05:30.841Z,97338.75
2023-03-10T06:06:13.033Z,97350.78
2023-03-10T06:06:56.159Z,97343.38
2023-03-10T06:07:37.967Z,97325.28
2023-03-10T06:08:19.660Z,97349.34
2023-03-10T06:09:01.985Z,97327.59
2023-03-10T06:09:43.901Z,97323.34
2023-03-10T06:10:25.761Z,97329.25
2023-03-10T06:11:07.500Z,97321.81
2023-03-10T06:11:49.248Z,97319.47
2023-03-10T06:12:32.894Z,97322.66
2023-03-10T06:13:16.018Z,97315.97
2023-03-10T06:13:57.746Z,97327.41
2023-03-10T06:14:39.550Z,97321.31
2023-03-10T06:15:21.574Z,97312.56
2023-03-10T06:16:06.033Z,97315.28
2023-03-10T06:16:51.598Z,97313.19
2023-03-10T06:17:33.530Z,97310.72
2023-03-10T06:18:15.521Z,97319.78
2023-03-10T06:18:57.511Z,97299.75
2023-03-10T06:19:39.188Z,97317.94
2023-03-10T06:20:20.968Z,97309.09
2023-03-10T06:21:13.604Z,97297.19
2023-03-10T06:21:55.283Z,97309.19
2023-03-10T06:22:37.133Z,97319.34
2023-03-10T06:23:19.742Z,97312.22
2023-03-10T06:24:01.559Z,97306.09
2023-03-10T06:24:45.350Z,97301.31
2023-03-10T06:25:27.171Z,97312.06
2023-03-10T06:26:12.337Z,97305.47
2023-03-10T06:26:54.052Z,97302.00
2023-03-10T06:27:36.016Z,97305.16
2023-03-10T06:28:17.684Z,97308.03
2023-03-10T06:28:59.389Z,97299.72
2023-03-10T06:29:41.122Z,97296.19
2023-03-10T06:30:23.109Z,97296.44
2023-03-10T06:31:13.385Z,97294.59
2023-03-10T06:31:55.255Z,97293.78
2023-03-10T06:32:37.202Z,97280.66
2023-03-10T06:33:18.952Z,97292.38
2023-03-10T06:34:03.187Z,97294.69
2023-03-10T06:34:46.002Z,97297.56
2023-03-10T06:35:29.178Z,97295.16
2023-03-10T06:36:12.905Z,97293.84
2023-03-10T06:36:55.764Z,97295.13
2023-03-10T06:37:37.484Z,97281.97
2023-03-10T06:38:19.584Z,97298.47
2023-03-10T06:39:01.368Z,97290.53
2023-03-10T06:39:43.250Z,97281.16
2023-03-10T06:40:25.190Z,97289.69
2023-03-10T06:41:08.219Z,97298.94
2023-03-10T06:41:49.914Z,97290.38
2023-03-10T06:42:32.543Z,97294.28
2023-03-10T06:43:14.405Z,97290.78
2023-03-10T06:43:56.452Z,97290.78
2023-03-10T06:44:38.195Z,97287.47
2023-03-10T06:45:20.023Z,97295.19
2023-03-10T06:46:06.774Z,97281.31
2023-03-10T06:46:48.611Z,97296.16
2023-03-10T06:47:30.278Z,97281.69
2023-03-10T06:48:12.918Z,97296.63
2023-03-10T06:48:59.582Z,97295.81
2023-03-10T06:49:41.478Z,97294.63
2023-03-10T06:50:23.174Z,97287.97
2023-03-10T06:51:11.019Z,97293.31
2023-03-10T06:51:52.838Z,97281.31
2023-03-10T06:52:35.458Z,97247.41
2023-03-10T06:53:19.510Z,97277.44
2023-03-10T06:54:01.261Z,97294.22
2023-03-10T06:54:43.232Z,97270.59
2023-03-10T06:55:24.929Z,97296.69
2023-03-10T06:56:10.662Z,97292.94
2023-03-10T06:56:52.416Z,97292.47
2023-03-10T06:57:34.496Z,97291.41
2023-03-10T06:58:16.166Z,97284.44
2023-03-10T06:58:58.902Z,97286.03
2023-03-10T06:59:40.814Z,97292.47
2023-03-10T07:00:22.784Z,97277.44
2023-03-10T07:01:06.192Z,97282.94
2023-03-10T07:01:48.252Z,97290.34
2023-03-10T07:02:29.972Z,97287.25
2023-03-10T07:03:12.772Z,97265.13
2023-03-10T07:03:55.265Z,97280.81
2023-03-10T07:04:37.159Z,97293.44
2023-03-10T07:05:19.425Z,97297.91
2023-03-10T07:06:01.207Z,97287.56
2023-03-10T07:06:43.025Z,97274.81
2023-03-10T07:07:24.815Z,97286.28
2023-03-10T07:08:06.627Z,97272.97
2023-03-10T07:08:49.032Z,97287.16
2023-03-10T07:09:30.770Z,97286.34
2023-03-10T07:10:12.582Z,97275.69
2023-03-10T07:10:54.410Z,97286.69
2023-03-10T07:11:36.308Z,97274.75
2023-03-10T07:12:18.058Z,97277.78
2023-03-10T07:12:59.770Z,97279.69
2023-03-10T07:13:41.607Z,97272.47
2023-03-10T07:14:23.416Z,97283.25
2023-03-10T07:15:05.632Z,97268.31
2023-03-10T07:15:48.029Z,97268.88
2023-03-10T07:16:29.817Z,97263.59
2023-03-10T07:17:11.596Z,97284.75
2023-03-10T07:17:56.163Z,97257.69
2023-03-10T07:18:37.970Z,97270.03
2023-03-10T07:19:19.752Z,97261.59
2023-03-10T07:20:01.476Z,97277.13
2023-03-10T07:20:48.105Z,97276.06
2023-03-10T07:21:30.164Z,97274.53
2023-03-10T07:22:11.948Z,97284.06
2023-03-10T07:22:53.731Z,97270.47
2023-03-10T07:23:35.749Z,97287.84
2023-03-10T07:24:18.080Z,97283.63
2023-03-10T07:25:00.036Z,97276.47
2023-03-10T07:25:41.798Z,97277.41
2023-03-10T07:26:23.535Z,97267.88
2023-03-10T07:27:05.727Z,97267.88
2023-03-10T07:27:47.655Z,97279.94
2023-03-10T07:28:29.344Z,97272.59
2023-03-10T07:29:11.071Z,97277.69
2023-03-10T07:29:52.724Z,97274.84
2023-03-10T07:30:35.555Z,97277.44
2023-03-10T07:31:17.335Z,97257.94
2023-03-10T07:31:59.124Z,97289.22
2023-03-10T07:32:40.982Z,97280.50
2023-03-10T07:33:22.775Z,97292.81
2023-03-10T07:34:04.628Z,97287.06
2023-03-10T07:34:46.358Z,97285.31
2023-03-10T07:35:28.220Z,97298.47
2023-03-10T07:36:12.910Z,97297.03
2023-03-10T07:36:54.692Z,97304.88
2023-03-10T07:37:40.585Z,97303.94
2023-03-10T07:38:22.385Z,97311.41
2023-03-10T07:39:04.487Z,97298.13
2023-03-10T07:39:46.337Z,97311.59
2023-03-10T07:40:28.592Z,97308.84
2023-03-10T07:41:16.347Z,97299.44
2023-03-10T07:41:57.977Z,97300.69
2023-03-10T07:42:39.770Z,97294.25
2023-03-10T07:43:21.462Z,97306.72
2023-03-10T07:44:03.392Z,97301.13
2023-03-10T07:44:45.112Z,97279.81
2023-03-10T07:45:27.745Z,97299.00
2023-03-10T07:46:12.486Z,97294.72
2023-03-10T07:46:54.321Z,97282.44
2023-03-10T07:47:36.077Z,97300.53
2023-03-10T07:48:17.794Z,97279.63
2023-03-10T07:49:04.061Z,97285.47
2023-03-10T07:49:47.025Z,97300.56
2023-03-10T07:50:28.971Z,97307.19
2023-03-10T07:51:12.592Z,97297.53
2023-03-10T07:51:54.407Z,97290.53
2023-03-10T07:52:36.178Z,97316.56
2023-03-10T07:53:17.885Z,97305.38
2023-03-10T07:53:59.734Z,97294.34
2023-03-10T07:54:41.956Z,97312.44
2023-03-10T07:55:23.869Z,97309.63
2023-03-10T07:56:08.064Z,97307.44
2023-03-10T07:56:51.170Z,97310.56
2023-03-10T07:57:33.095Z,97328.06
2023-03-10T07:58:14.945Z,97327.41
2023-03-10T07:58:58.798Z,97335.66
2023-03-10T07:59:41.623Z,97346.19
2023-03-10T08:00:23.606Z,97329.47
2023-03-10T08:01:08.274Z,97362.19
2023-03-10T08:01:50.325Z,97349.94
2023-03-10T08:02:32.213Z,97374.59
2023-03-10T08:03:13.937Z,97376.91
2023-03-10T08:03:58.048Z,97362.50
2023-03-10T08:04:41.212Z,97366.28
2023-03-10T08:05:23.138Z,97364.81
2023-03-10T08:06:05.801Z,97370.13
2023-03-10T08:06:47.644Z,97359.81
2023-03-10T08:07:29.493Z,97361.19
2023-03-10T08:08:12.848Z,97352.16
2023-03-10T08:08:55.530Z,97355.22
2023-03-10T08:09:37.654Z,97364.47
2023-03-10T08:10:19.533Z,97367.97
2023-03-10T08:11:07.121Z,97365.13
2023-03-10T08:11:51.932Z,97374.78
2023-03-10T08:12:34.214Z,97372.88
2023-03-10T08:13:16.051Z,97373.34
2023-03-10T08:13:57.839Z,97377.25
2023-03-10T08:14:40.178Z,97361.75
2023-03-10T08:15:22.262Z,97358.78
2023-03-10T08:16:08.686Z,97368.66
2023-03-10T08:16:51.883Z,97381.88
2023-03-10T08:17:33.776Z,97383.69
2023-03-10T08:18:15.438Z,97373.81
2023-03-10T08:18:57.480Z,97386.66
2023-03-10T08:19:40.292Z,97390.91
2023-03-10T08:20:22.242Z,97388.41
2023-03-10T08:21:06.637Z,97403.56
2023-03-10T08:21:48.457Z,97396.22
2023-03-10T08:22:30.230Z,97407.25
2023-03-10T08:23:11.959Z,97381.41
2023-03-10T08:23:53.680Z,97395.16
2023-03-10T08:24:37.807Z,97394.94
2023-03-10T08:25:19.849Z,97407.13
2023-03-10T08:26:04.520Z,97393.94
2023-03-10T08:26:46.296Z,97411.59
2023-03-10T08:27:29.240Z,97387.38
2023-03-10T08:28:11.125Z,97406.19
2023-03-10T08:28:52.881Z,97408.59
2023-03-10T08:29:35.329Z,97395.63
2023-03-10T08:30:17.562Z,97411.03
2023-03-10T08:31:04.918Z,97421.72
2023-03-10T08:31:48.068Z,97393.78
2023-03-10T08:32:30.888Z,97402.75
2023-03-10T08:33:13.640Z,97397.16